Bonassola — IWEE — position and weather

sailwx.info

Track history (hours):
 
Tides and Currents Weather Stations Pressure Air Temp Water Temp Dewpoint Dewpoint Depression Visibility Wind Speed Wind Dir Waves Ship Positions

Bonassola

Last reported at 2016-Jul-25 13:31 UTC. Time now 2016-Jul-25 14:06 UTC.
Position N 44°25' E 008°55'.

Length 60 m; draft 4 m.

Type: Pollution control. MMSI: 247159000.

Date/timePositionNaut miles runAvg speedWind from/ knotsBaromVisibWave heightAir tempDewpointWater temp
2016-Jul-25 13:31N 44°25' E 008°55'0 0.0
2016-Jul-25 12:28N 44°25' E 008°55'0 0.0
2016-Jul-25 11:31N 44°25' E 008°55'0 0.0
2016-Jul-25 10:28N 44°25' E 008°55'0 0.0
2016-Jul-25 09:31N 44°25' E 008°55'0 0.0
2016-Jul-25 08:31N 44°25' E 008°55'0 0.0
2016-Jul-25 07:31N 44°25' E 008°55'0 0.0
2016-Jul-25 06:31N 44°25' E 008°55'0 0.0
2016-Jul-24 18:15N 44°25' E 008°55'0 0.0
2016-Jul-24 17:30N 44°25' E 008°55'0 0.0
2016-Jul-24 16:33N 44°25' E 008°55'0 0.0
2016-Jul-24 15:33N 44°25' E 008°55'0 0.3
2016-Jul-24 14:33N 44°24' E 008°55'5 5.4
2016-Jul-24 13:33N 44°22' E 009°02'6 6.1
2016-Jul-24 12:33N 44°17' E 009°07'7 6.7
2016-Jul-24 11:33N 44°16' E 009°16'3 3.4
2016-Jul-24 10:33N 44°16' E 009°21'6 6.0
2016-Jul-24 09:33N 44°15' E 009°13'6 6.3
2016-Jul-24 08:33N 44°19' E 009°06'7 6.6
2016-Jul-24 07:33N 44°23' E 008°58'3 2.4
2016-Jul-24 06:28N 44°25' E 008°55'0 0.0
2016-Jul-24 05:28N 44°25' E 008°55'0 0.0
2016-Jul-24 04:31N 44°25' E 008°55'0 0.0
2016-Jul-24 03:31N 44°25' E 008°55'0 0.0
2016-Jul-24 02:31N 44°25' E 008°55'0 0.0
2016-Jul-24 01:31N 44°25' E 008°55'0 0.0
2016-Jul-24 00:31N 44°25' E 008°55'0 0.0
2016-Jul-23 23:31N 44°25' E 008°55'0 0.0
2016-Jul-23 22:31N 44°25' E 008°55'0 0.0
2016-Jul-23 21:28N 44°25' E 008°55'0 0.0
2016-Jul-23 20:22N 44°25' E 008°55'0 0.0
2016-Jul-23 19:31N 44°25' E 008°55'0 0.0
2016-Jul-23 18:31N 44°25' E 008°55'0 0.0
2016-Jul-23 17:25N 44°25' E 008°55'0 0.0
2016-Jul-23 16:28N 44°25' E 008°55'0 0.0
2016-Jul-23 15:28N 44°25' E 008°55'0 0.0
2016-Jul-23 14:31N 44°25' E 008°55'0 0.0
2016-Jul-23 13:31N 44°25' E 008°55'0 0.0
2016-Jul-23 12:31N 44°25' E 008°55'0 0.0
2016-Jul-23 11:28N 44°25' E 008°55'0 0.0
2016-Jul-23 10:31N 44°25' E 008°55'0 0.0
2016-Jul-23 09:31N 44°25' E 008°55'0 0.0
2016-Jul-23 08:31N 44°25' E 008°55'0 0.0
2016-Jul-23 07:28N 44°25' E 008°55'0 0.0
2016-Jul-23 06:22N 44°25' E 008°55'0 0.0
2016-Jul-23 04:25N 44°25' E 008°55'0 0.0
2016-Jul-23 03:31N 44°25' E 008°55'0 0.0
2016-Jul-23 02:28N 44°25' E 008°55'0 0.0
2016-Jul-23 01:28N 44°25' E 008°55'0 0.0
2016-Jul-23 00:31N 44°25' E 008°55'0 0.0
2016-Jul-22 23:31N 44°25' E 008°55'0 0.0
2016-Jul-22 22:31N 44°25' E 008°55'0 0.0
2016-Jul-22 21:31N 44°25' E 008°55'0 0.0
2016-Jul-22 20:31N 44°25' E 008°55'0 0.0
2016-Jul-22 19:31N 44°25' E 008°55'0 0.0
2016-Jul-22 18:31N 44°25' E 008°55'0 0.0
2016-Jul-22 17:31N 44°25' E 008°55'0 0.0
2016-Jul-22 16:31N 44°25' E 008°55'0 0.0
2016-Jul-22 15:25N 44°25' E 008°55'0 0.0
2016-Jul-22 14:33N 44°25' E 008°55'0 0.0
2016-Jul-22 13:33N 44°25' E 008°55'0 0.0
2016-Jul-22 12:33N 44°25' E 008°55'0 0.0
2016-Jul-22 11:33N 44°25' E 008°55'0 0.0
2016-Jul-22 10:33N 44°25' E 008°55'0 0.0
2016-Jul-22 09:33N 44°25' E 008°55'0 0.0
2016-Jul-22 08:27N 44°25' E 008°55'0 0.0
2016-Jul-22 07:33N 44°25' E 008°55'0 0.0
2016-Jul-22 06:30N 44°25' E 008°55'0 0.0
2016-Jul-21 18:21N 44°25' E 008°55'0 0.0
2016-Jul-21 17:33N 44°25' E 008°55'0 0.0
2016-Jul-21 16:33N 44°25' E 008°55'0 0.0
2016-Jul-21 15:33N 44°25' E 008°55'0 0.0
2016-Jul-21 14:33N 44°25' E 008°55'0 0.0
2016-Jul-21 13:33N 44°25' E 008°55'1 0.6
2016-Jul-21 12:25N 44°24' E 008°55'0 0.0
2016-Jul-21 11:28N 44°24' E 008°55'1 0.7
2016-Jul-21 10:33N 44°25' E 008°55'0 0.1
2016-Jul-21 09:32N 44°25' E 008°55'0 0.0
2016-Jul-21 08:29N 44°25' E 008°55'0 0.0
2016-Jul-21 07:29N 44°25' E 008°55'0 0.0
2016-Jul-21 06:32N 44°25' E 008°55'  
2016-Jul-16 15:05N 44°25' E 008°55'0 0.1
2016-Jul-16 14:34N 44°25' E 008°55'6 6.2
2016-Jul-16 13:34N 44°22' E 009°03'6 5.9
2016-Jul-16 12:33N 44°17' E 009°08'6 6.0
2016-Jul-16 11:33N 44°16' E 009°16'5 4.5
2016-Jul-16 10:33N 44°15' E 009°22'6 6.1
2016-Jul-16 09:33N 44°15' E 009°14'7 6.9
2016-Jul-16 08:33N 44°19' E 009°06'6 6.3
2016-Jul-16 07:33N 44°23' E 008°59'3 2.7
2016-Jul-16 06:25N 44°25' E 008°55'0 0.0
2016-Jul-16 03:28N 44°25' E 008°55'0 0.0
2016-Jul-16 02:31N 44°25' E 008°55'0 0.0
2016-Jul-16 01:31N 44°25' E 008°55'0 0.0
2016-Jul-16 00:31N 44°25' E 008°55'0 0.0
2016-Jul-15 23:31N 44°25' E 008°55'0 0.0
2016-Jul-15 22:31N 44°25' E 008°55'0 0.0
2016-Jul-15 21:31N 44°25' E 008°55'0 0.0
2016-Jul-15 20:31N 44°25' E 008°55'0 0.0
2016-Jul-15 19:31N 44°25' E 008°55'0 0.0
2016-Jul-15 18:31N 44°25' E 008°55'0 0.0
2016-Jul-15 17:28N 44°25' E 008°55'0 0.0
2016-Jul-15 16:28N 44°25' E 008°55'0 0.0
2016-Jul-15 15:28N 44°25' E 008°55'0 0.0
2016-Jul-15 14:31N 44°25' E 008°55'0 0.0
2016-Jul-15 13:31N 44°25' E 008°55'  
Track history (hours):
 
Tides and Currents Weather Stations Pressure Air Temp Water Temp Dewpoint Dewpoint Depression Visibility Wind Speed Wind Dir Waves Ship Positions

Bonassola

Last reported at 2016-Jul-25 13:31 UTC. Time now 2016-Jul-25 14:06 UTC.
Position N 44°25' E 008°55'.

Length 60 m; draft 4 m.

Type: Pollution control. MMSI: 247159000.

Date/timePositionNaut miles runAvg speedWind from/ knotsBaromVisibWave heightAir tempDewpointWater temp
2016-Jul-25 13:31N 44°25' E 008°55'0 0.0
2016-Jul-25 12:28N 44°25' E 008°55'0 0.0
2016-Jul-25 11:31N 44°25' E 008°55'0 0.0
2016-Jul-25 10:28N 44°25' E 008°55'0 0.0
2016-Jul-25 09:31N 44°25' E 008°55'0 0.0
2016-Jul-25 08:31N 44°25' E 008°55'0 0.0
2016-Jul-25 07:31N 44°25' E 008°55'0 0.0
2016-Jul-25 06:31N 44°25' E 008°55'0 0.0
2016-Jul-24 18:15N 44°25' E 008°55'0 0.0
2016-Jul-24 17:30N 44°25' E 008°55'0 0.0
2016-Jul-24 16:33N 44°25' E 008°55'0 0.0
2016-Jul-24 15:33N 44°25' E 008°55'0 0.3
2016-Jul-24 14:33N 44°24' E 008°55'5 5.4
2016-Jul-24 13:33N 44°22' E 009°02'6 6.1
2016-Jul-24 12:33N 44°17' E 009°07'7 6.7
2016-Jul-24 11:33N 44°16' E 009°16'3 3.4
2016-Jul-24 10:33N 44°16' E 009°21'6 6.0
2016-Jul-24 09:33N 44°15' E 009°13'6 6.3
2016-Jul-24 08:33N 44°19' E 009°06'7 6.6
2016-Jul-24 07:33N 44°23' E 008°58'3 2.4
2016-Jul-24 06:28N 44°25' E 008°55'0 0.0
2016-Jul-24 05:28N 44°25' E 008°55'0 0.0
2016-Jul-24 04:31N 44°25' E 008°55'0 0.0
2016-Jul-24 03:31N 44°25' E 008°55'0 0.0
2016-Jul-24 02:31N 44°25' E 008°55'0 0.0
2016-Jul-24 01:31N 44°25' E 008°55'0 0.0
2016-Jul-24 00:31N 44°25' E 008°55'0 0.0
2016-Jul-23 23:31N 44°25' E 008°55'0 0.0
2016-Jul-23 22:31N 44°25' E 008°55'0 0.0
2016-Jul-23 21:28N 44°25' E 008°55'0 0.0
2016-Jul-23 20:22N 44°25' E 008°55'0 0.0
2016-Jul-23 19:31N 44°25' E 008°55'0 0.0
2016-Jul-23 18:31N 44°25' E 008°55'0 0.0
2016-Jul-23 17:25N 44°25' E 008°55'0 0.0
2016-Jul-23 16:28N 44°25' E 008°55'0 0.0
2016-Jul-23 15:28N 44°25' E 008°55'0 0.0
2016-Jul-23 14:31N 44°25' E 008°55'0 0.0
2016-Jul-23 13:31N 44°25' E 008°55'0 0.0
2016-Jul-23 12:31N 44°25' E 008°55'0 0.0
2016-Jul-23 11:28N 44°25' E 008°55'0 0.0
2016-Jul-23 10:31N 44°25' E 008°55'0 0.0
2016-Jul-23 09:31N 44°25' E 008°55'0 0.0
2016-Jul-23 08:31N 44°25' E 008°55'0 0.0
2016-Jul-23 07:28N 44°25' E 008°55'0 0.0
2016-Jul-23 06:22N 44°25' E 008°55'0 0.0
2016-Jul-23 04:25N 44°25' E 008°55'0 0.0
2016-Jul-23 03:31N 44°25' E 008°55'0 0.0
2016-Jul-23 02:28N 44°25' E 008°55'0 0.0
2016-Jul-23 01:28N 44°25' E 008°55'0 0.0
2016-Jul-23 00:31N 44°25' E 008°55'0 0.0
2016-Jul-22 23:31N 44°25' E 008°55'0 0.0
2016-Jul-22 22:31N 44°25' E 008°55'0 0.0
2016-Jul-22 21:31N 44°25' E 008°55'0 0.0
2016-Jul-22 20:31N 44°25' E 008°55'0 0.0
2016-Jul-22 19:31N 44°25' E 008°55'0 0.0
2016-Jul-22 18:31N 44°25' E 008°55'0 0.0
2016-Jul-22 17:31N 44°25' E 008°55'0 0.0
2016-Jul-22 16:31N 44°25' E 008°55'0 0.0
2016-Jul-22 15:25N 44°25' E 008°55'0 0.0
2016-Jul-22 14:33N 44°25' E 008°55'0 0.0
2016-Jul-22 13:33N 44°25' E 008°55'0 0.0
2016-Jul-22 12:33N 44°25' E 008°55'0 0.0
2016-Jul-22 11:33N 44°25' E 008°55'0 0.0
2016-Jul-22 10:33N 44°25' E 008°55'0 0.0
2016-Jul-22 09:33N 44°25' E 008°55'0 0.0
2016-Jul-22 08:27N 44°25' E 008°55'0 0.0
2016-Jul-22 07:33N 44°25' E 008°55'0 0.0
2016-Jul-22 06:30N 44°25' E 008°55'0 0.0
2016-Jul-21 18:21N 44°25' E 008°55'0 0.0
2016-Jul-21 17:33N 44°25' E 008°55'0 0.0
2016-Jul-21 16:33N 44°25' E 008°55'0 0.0
2016-Jul-21 15:33N 44°25' E 008°55'0 0.0
2016-Jul-21 14:33N 44°25' E 008°55'0 0.0
2016-Jul-21 13:33N 44°25' E 008°55'1 0.6
2016-Jul-21 12:25N 44°24' E 008°55'0 0.0
2016-Jul-21 11:28N 44°24' E 008°55'1 0.7
2016-Jul-21 10:33N 44°25' E 008°55'0 0.1
2016-Jul-21 09:32N 44°25' E 008°55'0 0.0
2016-Jul-21 08:29N 44°25' E 008°55'0 0.0
2016-Jul-21 07:29N 44°25' E 008°55'0 0.0
2016-Jul-21 06:32N 44°25' E 008°55'  
2016-Jul-16 15:05N 44°25' E 008°55'0 0.1
2016-Jul-16 14:34N 44°25' E 008°55'6 6.2
2016-Jul-16 13:34N 44°22' E 009°03'6 5.9
2016-Jul-16 12:33N 44°17' E 009°08'6 6.0
2016-Jul-16 11:33N 44°16' E 009°16'5 4.5
2016-Jul-16 10:33N 44°15' E 009°22'6 6.1
2016-Jul-16 09:33N 44°15' E 009°14'7 6.9
2016-Jul-16 08:33N 44°19' E 009°06'6 6.3
2016-Jul-16 07:33N 44°23' E 008°59'3 2.7
2016-Jul-16 06:25N 44°25' E 008°55'0 0.0
2016-Jul-16 03:28N 44°25' E 008°55'0 0.0
2016-Jul-16 02:31N 44°25' E 008°55'0 0.0
2016-Jul-16 01:31N 44°25' E 008°55'0 0.0
2016-Jul-16 00:31N 44°25' E 008°55'0 0.0
2016-Jul-15 23:31N 44°25' E 008°55'0 0.0
2016-Jul-15 22:31N 44°25' E 008°55'0 0.0
2016-Jul-15 21:31N 44°25' E 008°55'0 0.0
2016-Jul-15 20:31N 44°25' E 008°55'0 0.0
2016-Jul-15 19:31N 44°25' E 008°55'0 0.0
2016-Jul-15 18:31N 44°25' E 008°55'0 0.0
2016-Jul-15 17:28N 44°25' E 008°55'0 0.0
2016-Jul-15 16:28N 44°25' E 008°55'0 0.0
2016-Jul-15 15:28N 44°25' E 008°55'0 0.0
2016-Jul-15 14:31N 44°25' E 008°55'0 0.0
2016-Jul-15 13:31N 44°25' E 008°55'  

Dump ship's entire track history